Time;durP1;ratioP1;P1;durP2;ratioP2;P2;SDS_P1;SDS_P2;PMS_P1;PMS_P2;Temp;Humidity;BMP_temperature;BMP_pressure;BME280_temperature;BME280_humidity;BME280_pressure;Samples;Min_cycle;Max_cycle;Signal;HPM_P1;HPM_P2
2024/03/05 00:00:13;;;;;;;41.17;25.73;;;;;;;;;;516600;28;1239;-75
2024/03/05 00:00:28;;;;;;;42.08;26.30;;;;;;;;;;517388;28;1405;-74
2024/03/05 00:00:44;;;;;;;41.33;26.17;;;;;;;;;;516462;28;1424;-74
2024/03/05 00:00:59;;;;;;;41.97;26.13;;;;;;;;;;515648;28;2052;-74
2024/03/05 00:01:14;;;;;;;43.80;26.20;;;;;;;;;;515715;28;1525;-74
2024/03/05 00:01:30;;;;;;;44.73;26.73;;;;;;;;;;517988;28;1417;-74
2024/03/05 00:01:45;;;;;;;42.80;26.83;;;;;;;;;;519500;28;1424;-74
2024/03/05 00:02:00;;;;;;;41.00;26.00;;;;;;;;;;517004;28;1418;-75
2024/03/05 00:02:17;;;;;;;42.20;26.53;;;;;;;;;;517371;28;1449;-74
2024/03/05 00:02:32;;;;;;;41.60;26.80;;;;;;;;;;517203;28;1922;-74
2024/03/05 00:02:47;;;;;;;40.08;26.23;;;;;;;;;;516468;28;1442;-74
2024/03/05 00:03:03;;;;;;;40.93;26.63;;;;;;;;;;516978;28;1214;-75
2024/03/05 00:03:18;;;;;;;41.57;26.30;;;;;;;;;;518561;28;1408;-75
2024/03/05 00:03:33;;;;;;;42.90;26.48;;;;;;;;;;516858;28;1914;-74
2024/03/05 00:03:49;;;;;;;43.57;26.87;;;;;;;;;;515575;28;1387;-74
2024/03/05 00:04:05;;;;;;;42.40;26.55;;;;;;;;;;517196;28;1243;-74
2024/03/05 00:04:21;;;;;;;43.17;27.15;;;;;;;;;;519165;28;2258;-74
2024/03/05 00:04:36;;;;;;;42.83;27.27;;;;;;;;;;519298;28;1397;-74
2024/03/05 00:04:51;;;;;;;42.43;26.57;;;;;;;;;;518974;28;1401;-75
2024/03/05 00:05:07;;;;;;;42.22;26.25;;;;;;;;;;519250;28;1349;-74
2024/03/05 00:05:23;;;;;;;42.10;26.35;;;;;;;;;;519381;28;1377;-74
2024/03/05 00:05:38;;;;;;;41.27;26.37;;;;;;;;;;517733;28;1551;-75
2024/03/05 00:05:54;;;;;;;42.55;26.60;;;;;;;;;;519289;28;2310;-75
2024/03/05 00:06:10;;;;;;;42.72;26.48;;;;;;;;;;519183;28;1484;-74
2024/03/05 00:06:26;;;;;;;40.65;25.92;;;;;;;;;;519320;28;1393;-74
2024/03/05 00:06:41;;;;;;;40.90;25.67;;;;;;;;;;519275;28;1512;-74
2024/03/05 00:06:57;;;;;;;40.97;25.60;;;;;;;;;;516988;28;1382;-74
2024/03/05 00:07:15;;;;;;;39.23;25.53;;;;;;;;;;517224;28;1445;-74
2024/03/05 00:07:30;;;;;;;38.17;25.33;;;;;;;;;;518166;28;1867;-75
2024/03/05 00:07:46;;;;;;;40.27;26.10;;;;;;;;;;517294;28;1359;-74
2024/03/05 00:08:02;;;;;;;39.97;25.87;;;;;;;;;;517392;28;1370;-74
2024/03/05 00:08:17;;;;;;;38.00;25.48;;;;;;;;;;516803;28;1397;-75
2024/03/05 00:08:33;;;;;;;39.00;25.10;;;;;;;;;;517315;28;1584;-74
2024/03/05 00:08:48;;;;;;;44.20;26.07;;;;;;;;;;517891;28;1418;-75
2024/03/05 00:09:04;;;;;;;43.47;26.37;;;;;;;;;;516371;28;1931;-75
2024/03/05 00:09:21;;;;;;;39.20;25.00;;;;;;;;;;517792;28;1495;-74
2024/03/05 00:09:36;;;;;;;40.30;24.77;;;;;;;;;;517712;28;1945;-75
2024/03/05 00:09:51;;;;;;;46.20;26.25;;;;;;;;;;518905;28;1535;-74
2024/03/05 00:10:09;;;;;;;45.80;26.77;;;;;;;;;;517464;28;1362;-74
2024/03/05 00:10:25;;;;;;;42.40;26.67;;;;;;;;;;517015;28;1405;-74
2024/03/05 00:10:40;;;;;;;44.23;27.13;;;;;;;;;;517324;28;1353;-74
2024/03/05 00:10:55;;;;;;;45.35;27.38;;;;;;;;;;518046;28;1432;-74
2024/03/05 00:11:11;;;;;;;44.10;27.17;;;;;;;;;;519202;28;1204;-74
2024/03/05 00:11:26;;;;;;;43.20;27.25;;;;;;;;;;519205;28;1333;-74
2024/03/05 00:11:41;;;;;;;42.80;27.10;;;;;;;;;;519247;28;1444;-74
2024/03/05 00:11:57;;;;;;;42.87;26.90;;;;;;;;;;519187;28;1393;-74
2024/03/05 00:12:12;;;;;;;43.43;27.13;;;;;;;;;;518981;28;1368;-74
2024/03/05 00:12:29;;;;;;;42.50;27.10;;;;;;;;;;519711;28;1761;-74
2024/03/05 00:12:44;;;;;;;43.67;26.73;;;;;;;;;;519250;28;1425;-74
2024/03/05 00:12:59;;;;;;;42.65;26.10;;;;;;;;;;518874;28;1225;-75
2024/03/05 00:13:15;;;;;;;42.23;25.93;;;;;;;;;;518225;28;1507;-75
2024/03/05 00:13:30;;;;;;;41.00;25.97;;;;;;;;;;517873;28;1343;-74
2024/03/05 00:13:45;;;;;;;40.80;26.05;;;;;;;;;;515008;28;1783;-74
2024/03/05 00:14:01;;;;;;;42.90;26.33;;;;;;;;;;514957;28;2265;-74
2024/03/05 00:14:17;;;;;;;44.35;27.05;;;;;;;;;;514490;28;1391;-74
2024/03/05 00:14:33;;;;;;;42.22;26.50;;;;;;;;;;515000;28;1462;-74
2024/03/05 00:14:48;;;;;;;42.20;26.00;;;;;;;;;;515607;28;1358;-74
2024/03/05 00:15:07;;;;;;;41.37;26.03;;;;;;;;;;516880;28;1417;-74
2024/03/05 00:15:22;;;;;;;39.83;25.95;;;;;;;;;;517193;28;1297;-74
2024/03/05 00:15:39;;;;;;;42.28;26.30;;;;;;;;;;517689;28;2124;-74
2024/03/05 00:15:54;;;;;;;43.60;26.67;;;;;;;;;;518938;28;1409;-74
2024/03/05 00:16:10;;;;;;;43.70;26.83;;;;;;;;;;519063;28;1476;-74
2024/03/05 00:16:27;;;;;;;42.72;26.75;;;;;;;;;;517831;28;1299;-74
2024/03/05 00:16:42;;;;;;;39.45;25.73;;;;;;;;;;519333;28;1345;-74
2024/03/05 00:16:57;;;;;;;39.23;25.50;;;;;;;;;;518160;28;1393;-74
2024/03/05 00:17:13;;;;;;;40.00;25.47;;;;;;;;;;517009;28;2207;-74
2024/03/05 00:17:28;;;;;;;41.33;25.98;;;;;;;;;;516817;28;1381;-74
2024/03/05 00:17:43;;;;;;;43.90;26.70;;;;;;;;;;517027;28;1421;-74
2024/03/05 00:17:59;;;;;;;43.80;26.90;;;;;;;;;;517462;28;1413;-74
2024/03/05 00:18:14;;;;;;;41.78;26.48;;;;;;;;;;517155;28;1350;-74
2024/03/05 00:18:30;;;;;;;43.30;26.63;;;;;;;;;;519208;28;1451;-74
2024/03/05 00:18:45;;;;;;;45.97;27.53;;;;;;;;;;519327;28;1393;-74
2024/03/05 00:19:01;;;;;;;44.30;27.27;;;;;;;;;;517704;28;1857;-74
2024/03/05 00:19:16;;;;;;;40.92;26.23;;;;;;;;;;517237;28;1358;-74
2024/03/05 00:19:31;;;;;;;39.67;25.80;;;;;;;;;;516904;28;1426;-74
2024/03/05 00:19:46;;;;;;;40.50;26.57;;;;;;;;;;515016;28;1312;-75
2024/03/05 00:20:02;;;;;;;42.47;27.13;;;;;;;;;;515188;28;1108;-74
2024/03/05 00:20:18;;;;;;;43.63;27.10;;;;;;;;;;517219;28;1295;-75
2024/03/05 00:20:33;;;;;;;42.55;26.92;;;;;;;;;;514725;28;1887;-74
2024/03/05 00:20:48;;;;;;;40.77;25.80;;;;;;;;;;514293;28;1390;-74
2024/03/05 00:21:04;;;;;;;38.40;24.63;;;;;;;;;;517227;28;1076;-74
2024/03/05 00:21:19;;;;;;;38.67;25.17;;;;;;;;;;519214;28;1365;-74
2024/03/05 00:21:35;;;;;;;41.80;26.63;;;;;;;;;;519029;28;1420;-74
2024/03/05 00:21:50;;;;;;;43.00;27.05;;;;;;;;;;517038;28;1390;-74
2024/03/05 00:22:05;;;;;;;44.10;26.93;;;;;;;;;;517063;28;1491;-74
2024/03/05 00:22:21;;;;;;;43.20;26.83;;;;;;;;;;514330;28;1482;-74
2024/03/05 00:22:36;;;;;;;41.63;26.80;;;;;;;;;;513201;28;1459;-74
2024/03/05 00:22:51;;;;;;;44.60;27.47;;;;;;;;;;515013;28;1450;-74
2024/03/05 00:23:07;;;;;;;46.60;27.10;;;;;;;;;;514729;28;1568;-74
2024/03/05 00:23:22;;;;;;;45.67;26.90;;;;;;;;;;514061;28;1320;-74
2024/03/05 00:23:38;;;;;;;42.97;26.70;;;;;;;;;;514445;28;2933;-74
2024/03/05 00:23:53;;;;;;;41.15;26.08;;;;;;;;;;516972;28;1381;-74
2024/03/05 00:24:08;;;;;;;40.67;26.27;;;;;;;;;;517395;28;1349;-74
2024/03/05 00:24:24;;;;;;;40.53;26.33;;;;;;;;;;519239;28;1428;-74
2024/03/05 00:24:39;;;;;;;41.85;26.67;;;;;;;;;;519349;28;1432;-74
2024/03/05 00:24:54;;;;;;;43.53;27.20;;;;;;;;;;518820;28;1373;-74
2024/03/05 00:25:11;;;;;;;43.03;26.75;;;;;;;;;;520037;28;1425;-74
2024/03/05 00:25:26;;;;;;;43.92;26.70;;;;;;;;;;519179;28;2273;-74
2024/03/05 00:25:42;;;;;;;44.20;27.13;;;;;;;;;;519081;28;1432;-74
2024/03/05 00:25:57;;;;;;;42.30;26.90;;;;;;;;;;519939;28;1529;-74
2024/03/05 00:26:17;;;;;;;41.60;26.80;;;;;;;;;;519443;28;1254;-74
2024/03/05 00:26:33;;;;;;;41.75;26.85;;;;;;;;;;517395;28;962;-74
2024/03/05 00:26:48;;;;;;;46.40;27.40;;;;;;;;;;516529;28;1335;-74
2024/03/05 00:27:03;;;;;;;45.77;27.33;;;;;;;;;;516739;28;1954;-74
2024/03/05 00:27:19;;;;;;;43.23;26.90;;;;;;;;;;517314;28;1405;-74
2024/03/05 00:27:34;;;;;;;44.65;27.00;;;;;;;;;;515838;28;1358;-75
2024/03/05 00:27:49;;;;;;;44.23;26.80;;;;;;;;;;516283;28;1278;-74
2024/03/05 00:28:05;;;;;;;40.20;25.77;;;;;;;;;;516624;28;1139;-74
2024/03/05 00:28:20;;;;;;;38.75;25.55;;;;;;;;;;516269;28;1404;-75
2024/03/05 00:28:37;;;;;;;40.47;25.40;;;;;;;;;;514766;28;1860;-75
2024/03/05 00:28:58;;;;;;;37.42;24.35;;;;;;;;;;514966;28;1382;-75
2024/03/05 00:29:13;;;;;;;40.53;25.17;;;;;;;;;;512337;28;1499;-74
2024/03/05 00:29:28;;;;;;;38.90;24.70;;;;;;;;;;514423;28;1426;-74
2024/03/05 00:29:43;;;;;;;38.57;25.00;;;;;;;;;;515032;28;1351;-75
2024/03/05 00:29:59;;;;;;;39.80;25.70;;;;;;;;;;514900;28;1403;-75
2024/03/05 00:30:14;;;;;;;41.70;26.17;;;;;;;;;;513305;28;1168;-74
2024/03/05 00:30:30;;;;;;;42.33;26.80;;;;;;;;;;512908;28;1048;-75
2024/03/05 00:30:45;;;;;;;39.00;25.63;;;;;;;;;;514154;28;1290;-75
2024/03/05 00:31:00;;;;;;;38.30;24.70;;;;;;;;;;518026;28;1048;-75
2024/03/05 00:31:16;;;;;;;41.07;25.33;;;;;;;;;;521188;28;1147;-75
2024/03/05 00:31:31;;;;;;;43.25;26.45;;;;;;;;;;518979;28;1227;-74
2024/03/05 00:31:46;;;;;;;45.80;26.87;;;;;;;;;;515282;28;1204;-75
2024/03/05 00:32:02;;;;;;;44.50;26.42;;;;;;;;;;515258;28;1286;-74
2024/03/05 00:32:18;;;;;;;41.37;25.97;;;;;;;;;;516971;28;906;-75
2024/03/05 00:32:33;;;;;;;40.65;25.33;;;;;;;;;;517296;28;1325;-74
2024/03/05 00:32:48;;;;;;;40.87;26.10;;;;;;;;;;517108;28;862;-74
2024/03/05 00:33:06;;;;;;;44.63;27.42;;;;;;;;;;515346;28;1197;-75
2024/03/05 00:33:21;;;;;;;42.85;26.73;;;;;;;;;;515059;28;945;-75
2024/03/05 00:33:36;;;;;;;38.90;25.63;;;;;;;;;;515139;28;1120;-74
2024/03/05 00:33:51;;;;;;;40.37;25.37;;;;;;;;;;513198;28;1414;-74
2024/03/05 00:34:07;;;;;;;42.15;25.77;;;;;;;;;;515381;28;858;-74
2024/03/05 00:34:22;;;;;;;39.70;25.43;;;;;;;;;;513131;28;1324;-74
2024/03/05 00:34:38;;;;;;;38.63;25.47;;;;;;;;;;515258;28;1096;-74
2024/03/05 00:34:53;;;;;;;39.72;25.95;;;;;;;;;;515057;28;1546;-74
2024/03/05 00:35:09;;;;;;;41.22;26.17;;;;;;;;;;515231;28;848;-74
2024/03/05 00:35:24;;;;;;;42.23;25.90;;;;;;;;;;515448;28;819;-74
2024/03/05 00:35:41;;;;;;;42.30;25.88;;;;;;;;;;515564;28;1192;-74
2024/03/05 00:35:57;;;;;;;40.58;25.50;;;;;;;;;;517182;28;1056;-74
2024/03/05 00:36:13;;;;;;;39.53;25.87;;;;;;;;;;515677;28;1376;-75
2024/03/05 00:36:29;;;;;;;41.17;26.30;;;;;;;;;;517293;28;859;-74
2024/03/05 00:36:44;;;;;;;41.57;26.33;;;;;;;;;;517131;28;918;-74
2024/03/05 00:36:59;;;;;;;42.90;25.83;;;;;;;;;;515086;28;1090;-74
2024/03/05 00:37:14;;;;;;;46.23;25.83;;;;;;;;;;515135;28;1178;-74
2024/03/05 00:37:30;;;;;;;44.70;26.67;;;;;;;;;;515854;28;874;-74
2024/03/05 00:37:45;;;;;;;42.63;26.73;;;;;;;;;;517380;28;918;-74
2024/03/05 00:38:01;;;;;;;41.88;26.02;;;;;;;;;;517378;28;1252;-74
2024/03/05 00:38:16;;;;;;;40.87;26.00;;;;;;;;;;518798;28;830;-74
2024/03/05 00:38:33;;;;;;;41.13;26.50;;;;;;;;;;519093;28;789;-75
2024/03/05 00:38:49;;;;;;;38.95;25.15;;;;;;;;;;520002;28;962;-74
2024/03/05 00:39:04;;;;;;;37.73;24.50;;;;;;;;;;521145;28;949;-74
2024/03/05 00:39:19;;;;;;;39.73;25.20;;;;;;;;;;519179;28;1566;-74
2024/03/05 00:39:35;;;;;;;40.28;25.10;;;;;;;;;;519357;28;1009;-74
2024/03/05 00:39:50;;;;;;;41.37;25.47;;;;;;;;;;519473;28;810;-74
2024/03/05 00:40:08;;;;;;;42.43;26.60;;;;;;;;;;517182;28;1317;-75
2024/03/05 00:40:24;;;;;;;41.20;26.75;;;;;;;;;;516900;28;942;-74
2024/03/05 00:40:40;;;;;;;40.38;26.23;;;;;;;;;;517060;28;1387;-74
2024/03/05 00:40:55;;;;;;;40.53;25.83;;;;;;;;;;518613;28;1012;-74
2024/03/05 00:41:11;;;;;;;43.83;26.75;;;;;;;;;;517935;28;1414;-74
2024/03/05 00:41:26;;;;;;;44.23;26.80;;;;;;;;;;519135;28;1307;-75
2024/03/05 00:41:41;;;;;;;39.63;25.45;;;;;;;;;;519449;28;815;-74
2024/03/05 00:41:57;;;;;;;40.27;25.73;;;;;;;;;;519093;28;1160;-74
2024/03/05 00:42:12;;;;;;;41.97;26.67;;;;;;;;;;519328;28;992;-74
2024/03/05 00:42:27;;;;;;;42.75;26.83;;;;;;;;;;519367;28;925;-75
2024/03/05 00:42:43;;;;;;;45.60;27.60;;;;;;;;;;521325;28;854;-74
2024/03/05 00:42:58;;;;;;;44.83;27.57;;;;;;;;;;521084;28;1211;-74
2024/03/05 00:43:14;;;;;;;42.83;27.27;;;;;;;;;;519032;28;1151;-74
2024/03/05 00:43:29;;;;;;;42.78;27.15;;;;;;;;;;519253;28;792;-74
2024/03/05 00:43:45;;;;;;;43.53;26.98;;;;;;;;;;519251;28;1985;-75
2024/03/05 00:44:00;;;;;;;44.28;27.55;;;;;;;;;;519126;28;1207;-75
2024/03/05 00:44:16;;;;;;;42.90;27.47;;;;;;;;;;519308;28;839;-75
2024/03/05 00:44:31;;;;;;;40.20;25.97;;;;;;;;;;519411;28;901;-75
2024/03/05 00:44:46;;;;;;;40.40;25.67;;;;;;;;;;519013;28;1152;-74
2024/03/05 00:45:02;;;;;;;46.07;27.27;;;;;;;;;;519100;28;1045;-75
2024/03/05 00:45:21;;;;;;;45.35;27.48;;;;;;;;;;519316;28;1204;-74
2024/03/05 00:45:36;;;;;;;40.85;26.60;;;;;;;;;;519376;28;890;-74
2024/03/05 00:45:52;;;;;;;41.97;25.80;;;;;;;;;;516887;28;1247;-74
2024/03/05 00:46:07;;;;;;;43.30;26.37;;;;;;;;;;517202;28;1247;-74
2024/03/05 00:46:23;;;;;;;39.97;26.43;;;;;;;;;;517049;28;1275;-74
2024/03/05 00:46:40;;;;;;;37.78;25.42;;;;;;;;;;517116;28;1335;-74
2024/03/05 00:46:56;;;;;;;38.72;25.77;;;;;;;;;;517357;28;925;-74
2024/03/05 00:47:13;;;;;;;41.57;26.33;;;;;;;;;;517438;28;910;-74
2024/03/05 00:47:29;;;;;;;41.53;26.13;;;;;;;;;;517207;28;1336;-74
2024/03/05 00:47:45;;;;;;;40.22;25.77;;;;;;;;;;519356;28;933;-75
2024/03/05 00:48:00;;;;;;;41.40;26.37;;;;;;;;;;516337;28;1152;-74
2024/03/05 00:48:16;;;;;;;42.70;26.45;;;;;;;;;;514482;28;1063;-74
2024/03/05 00:48:31;;;;;;;41.13;26.50;;;;;;;;;;516011;28;855;-74
2024/03/05 00:48:47;;;;;;;41.00;26.58;;;;;;;;;;519387;28;823;-74
2024/03/05 00:49:02;;;;;;;39.17;24.80;;;;;;;;;;517315;28;1161;-75
2024/03/05 00:49:18;;;;;;;36.83;23.83;;;;;;;;;;517569;28;1273;-75
2024/03/05 00:49:33;;;;;;;36.33;23.70;;;;;;;;;;519333;28;1136;-74
2024/03/05 00:49:48;;;;;;;35.88;23.45;;;;;;;;;;517039;28;1457;-75
2024/03/05 00:50:04;;;;;;;33.60;23.17;;;;;;;;;;518866;28;1223;-74
2024/03/05 00:50:20;;;;;;;34.95;23.13;;;;;;;;;;519226;28;1147;-74
2024/03/05 00:50:35;;;;;;;37.77;23.63;;;;;;;;;;519231;28;862;-74
2024/03/05 00:50:50;;;;;;;39.00;24.63;;;;;;;;;;519524;28;1192;-74
2024/03/05 00:51:08;;;;;;;40.17;25.40;;;;;;;;;;519115;28;973;-75
2024/03/05 00:51:24;;;;;;;42.92;26.55;;;;;;;;;;519307;28;898;-75
2024/03/05 00:51:40;;;;;;;41.93;26.43;;;;;;;;;;519469;28;874;-74
2024/03/05 00:51:55;;;;;;;38.10;24.45;;;;;;;;;;518995;28;1021;-75
2024/03/05 00:52:10;;;;;;;38.30;23.90;;;;;;;;;;519334;28;835;-74
2024/03/05 00:52:26;;;;;;;39.00;24.63;;;;;;;;;;517273;28;1357;-74
2024/03/05 00:52:41;;;;;;;39.03;25.07;;;;;;;;;;517864;28;1248;-74
2024/03/05 00:52:56;;;;;;;40.65;25.67;;;;;;;;;;518571;28;1398;-75
2024/03/05 00:53:13;;;;;;;43.50;27.23;;;;;;;;;;516811;28;1304;-74
2024/03/05 00:53:28;;;;;;;43.28;27.75;;;;;;;;;;517093;28;823;-74
2024/03/05 00:53:44;;;;;;;43.00;26.70;;;;;;;;;;515251;28;1289;-74
2024/03/05 00:53:59;;;;;;;43.85;26.60;;;;;;;;;;512882;28;1270;-74
2024/03/05 00:54:14;;;;;;;43.77;26.73;;;;;;;;;;511459;28;1146;-74
2024/03/05 00:54:30;;;;;;;43.67;27.00;;;;;;;;;;511318;29;1222;-74
2024/03/05 00:54:45;;;;;;;44.65;27.45;;;;;;;;;;511326;29;867;-74
2024/03/05 00:55:00;;;;;;;44.33;26.70;;;;;;;;;;511168;28;939;-75
2024/03/05 00:55:16;;;;;;;41.97;25.93;;;;;;;;;;510998;28;1354;-74
2024/03/05 00:55:31;;;;;;;43.40;26.97;;;;;;;;;;511390;28;1136;-74
2024/03/05 00:55:47;;;;;;;45.17;26.85;;;;;;;;;;513308;28;1433;-74
2024/03/05 00:56:02;;;;;;;43.33;25.97;;;;;;;;;;514965;28;1146;-74
2024/03/05 00:56:17;;;;;;;42.88;26.55;;;;;;;;;;515199;28;1040;-75
2024/03/05 00:56:32;;;;;;;44.70;27.40;;;;;;;;;;517346;28;1393;-74
2024/03/05 00:56:48;;;;;;;44.33;27.37;;;;;;;;;;517151;28;1060;-75
2024/03/05 00:57:03;;;;;;;40.97;26.20;;;;;;;;;;517117;28;1264;-74
2024/03/05 00:57:18;;;;;;;40.73;25.53;;;;;;;;;;518565;28;2356;-75
2024/03/05 00:57:35;;;;;;;42.47;26.00;;;;;;;;;;518866;28;2171;-74
2024/03/05 00:57:51;;;;;;;42.47;26.08;;;;;;;;;;519126;28;1262;-75
2024/03/05 00:58:07;;;;;;;40.55;25.42;;;;;;;;;;517367;28;854;-74
2024/03/05 00:58:22;;;;;;;38.33;24.52;;;;;;;;;;518446;28;1269;-74
2024/03/05 00:58:38;;;;;;;36.73;23.73;;;;;;;;;;521231;28;1215;-74
2024/03/05 00:58:53;;;;;;;39.08;24.80;;;;;;;;;;520694;28;1219;-75
2024/03/05 00:59:08;;;;;;;41.83;26.13;;;;;;;;;;519181;28;1445;-74
2024/03/05 00:59:23;;;;;;;43.13;26.80;;;;;;;;;;521040;28;1243;-74
2024/03/05 00:59:39;;;;;;;43.93;26.87;;;;;;;;;;521462;28;1045;-74
2024/03/05 00:59:54;;;;;;;41.55;26.23;;;;;;;;;;520774;28;1243;-74
2024/03/05 01:00:13;;;;;;;37.63;24.63;;;;;;;;;;521264;28;818;-74
2024/03/05 01:00:28;;;;;;;34.97;23.23;;;;;;;;;;518534;28;889;-74
2024/03/05 01:00:43;;;;;;;35.33;23.47;;;;;;;;;;519092;28;1123;-74
2024/03/05 01:00:58;;;;;;;37.23;24.33;;;;;;;;;;518999;28;1001;-74
2024/03/05 01:01:15;;;;;;;37.00;24.03;;;;;;;;;;517301;28;1142;-74
2024/03/05 01:01:31;;;;;;;34.17;22.88;;;;;;;;;;519146;28;1464;-74
2024/03/05 01:01:46;;;;;;;34.65;23.55;;;;;;;;;;519240;28;764;-74
2024/03/05 01:02:01;;;;;;;39.10;25.13;;;;;;;;;;516825;28;1156;-74
2024/03/05 01:02:17;;;;;;;40.07;24.97;;;;;;;;;;517662;28;2357;-74
2024/03/05 01:02:32;;;;;;;35.30;23.02;;;;;;;;;;518579;28;1982;-74
2024/03/05 01:02:47;;;;;;;33.97;22.60;;;;;;;;;;517493;28;1310;-74
2024/03/05 01:03:03;;;;;;;36.90;23.97;;;;;;;;;;517037;28;1305;-74
2024/03/05 01:03:19;;;;;;;40.35;25.60;;;;;;;;;;516534;28;910;-74
2024/03/05 01:03:35;;;;;;;41.25;25.70;;;;;;;;;;514843;28;1979;-74
2024/03/05 01:03:51;;;;;;;40.72;25.40;;;;;;;;;;515597;28;1320;-74
2024/03/05 01:04:07;;;;;;;40.08;25.00;;;;;;;;;;517141;28;855;-74
2024/03/05 01:04:25;;;;;;;37.33;23.60;;;;;;;;;;517146;28;878;-74
2024/03/05 01:04:41;;;;;;;36.63;23.83;;;;;;;;;;517319;28;938;-74
2024/03/05 01:04:56;;;;;;;39.00;24.80;;;;;;;;;;517733;28;1207;-74
2024/03/05 01:05:12;;;;;;;37.50;24.17;;;;;;;;;;519315;28;873;-75
2024/03/05 01:05:27;;;;;;;37.40;24.00;;;;;;;;;;519959;28;791;-75
2024/03/05 01:05:43;;;;;;;41.57;26.37;;;;;;;;;;521337;28;1321;-74
2024/03/05 01:05:58;;;;;;;43.70;27.83;;;;;;;;;;522018;28;918;-74
2024/03/05 01:06:13;;;;;;;44.17;27.53;;;;;;;;;;521066;28;1602;-74
2024/03/05 01:06:29;;;;;;;44.42;27.63;;;;;;;;;;517961;28;1869;-74
2024/03/05 01:06:44;;;;;;;44.60;28.20;;;;;;;;;;517300;28;2199;-75
2024/03/05 01:06:59;;;;;;;44.17;28.27;;;;;;;;;;516881;28;2148;-74
2024/03/05 01:07:16;;;;;;;46.70;28.25;;;;;;;;;;518553;28;1269;-74
2024/03/05 01:07:31;;;;;;;47.38;28.38;;;;;;;;;;519338;28;866;-75
2024/03/05 01:07:47;;;;;;;46.90;28.60;;;;;;;;;;519273;28;997;-75
2024/03/05 01:08:06;;;;;;;45.85;28.33;;;;;;;;;;516323;28;1318;-74
2024/03/05 01:08:21;;;;;;;44.05;27.75;;;;;;;;;;514434;28;1256;-75
2024/03/05 01:08:36;;;;;;;43.60;26.90;;;;;;;;;;515880;28;1422;-75
2024/03/05 01:08:52;;;;;;;43.70;26.42;;;;;;;;;;514309;28;1110;-74
2024/03/05 01:09:11;;;;;;;43.23;26.87;;;;;;;;;;515236;28;1117;-74
2024/03/05 01:09:27;;;;;;;43.33;27.17;;;;;;;;;;515109;28;1386;-74
2024/03/05 01:09:42;;;;;;;41.60;26.37;;;;;;;;;;515201;28;847;-74
2024/03/05 01:09:58;;;;;;;39.00;25.53;;;;;;;;;;515071;28;1116;-74
2024/03/05 01:10:13;;;;;;;37.67;25.55;;;;;;;;;;516094;28;842;-74
2024/03/05 01:10:28;;;;;;;42.07;27.40;;;;;;;;;;516071;28;1077;-74
2024/03/05 01:10:45;;;;;;;45.38;27.67;;;;;;;;;;515814;28;1145;-75
2024/03/05 01:11:01;;;;;;;46.08;27.35;;;;;;;;;;517951;28;1251;-74
2024/03/05 01:11:17;;;;;;;44.15;27.20;;;;;;;;;;519175;28;1275;-74
2024/03/05 01:11:32;;;;;;;42.73;26.87;;;;;;;;;;519313;28;913;-74
2024/03/05 01:11:47;;;;;;;43.97;27.27;;;;;;;;;;519075;28;1141;-74
2024/03/05 01:12:03;;;;;;;45.07;27.47;;;;;;;;;;518976;28;1024;-74
2024/03/05 01:12:18;;;;;;;43.88;27.45;;;;;;;;;;518654;28;1079;-75
2024/03/05 01:12:33;;;;;;;44.57;27.57;;;;;;;;;;517768;28;1021;-74
2024/03/05 01:12:49;;;;;;;44.23;27.43;;;;;;;;;;519518;28;1017;-74
2024/03/05 01:13:05;;;;;;;43.63;28.08;;;;;;;;;;523062;28;1051;-74
2024/03/05 01:13:20;;;;;;;45.07;28.77;;;;;;;;;;522705;28;1207;-75
2024/03/05 01:13:37;;;;;;;42.70;27.63;;;;;;;;;;523141;28;1203;-74
2024/03/05 01:13:54;;;;;;;39.00;25.52;;;;;;;;;;520571;28;937;-74
2024/03/05 01:14:10;;;;;;;40.17;25.38;;;;;;;;;;519409;28;953;-74
2024/03/05 01:14:25;;;;;;;41.13;25.70;;;;;;;;;;520928;28;2117;-75
2024/03/05 01:14:40;;;;;;;42.90;26.17;;;;;;;;;;522774;28;1024;-74
2024/03/05 01:14:56;;;;;;;44.03;26.83;;;;;;;;;;521569;28;1995;-75
2024/03/05 01:15:12;;;;;;;41.40;25.90;;;;;;;;;;519060;28;1250;-75
2024/03/05 01:15:28;;;;;;;38.35;24.80;;;;;;;;;;518985;28;1008;-75
2024/03/05 01:15:43;;;;;;;39.13;25.40;;;;;;;;;;519214;28;1279;-76
2024/03/05 01:15:58;;;;;;;42.73;26.83;;;;;;;;;;518722;28;1146;-74
2024/03/05 01:16:13;;;;;;;43.20;27.67;;;;;;;;;;519211;28;1044;-74
2024/03/05 01:16:29;;;;;;;43.08;28.02;;;;;;;;;;519337;28;1092;-74
2024/03/05 01:16:44;;;;;;;43.83;27.97;;;;;;;;;;519038;28;1116;-74
2024/03/05 01:16:59;;;;;;;43.63;27.13;;;;;;;;;;520509;28;1001;-74
2024/03/05 01:17:14;;;;;;;44.95;27.38;;;;;;;;;;521172;28;1227;-74
2024/03/05 01:17:30;;;;;;;44.50;27.60;;;;;;;;;;521210;28;1159;-75
2024/03/05 01:17:45;;;;;;;44.20;27.40;;;;;;;;;;521226;28;1199;-75
2024/03/05 01:18:01;;;;;;;43.90;27.27;;;;;;;;;;517535;28;1186;-74
2024/03/05 01:18:16;;;;;;;42.22;26.67;;;;;;;;;;516659;28;890;-75
2024/03/05 01:18:32;;;;;;;42.60;26.70;;;;;;;;;;514848;28;1164;-74
2024/03/05 01:18:47;;;;;;;44.23;26.90;;;;;;;;;;513211;28;1194;-75
2024/03/05 01:19:02;;;;;;;43.43;26.87;;;;;;;;;;513029;28;1182;-74
2024/03/05 01:19:18;;;;;;;41.97;26.70;;;;;;;;;;513056;28;986;-74
2024/03/05 01:19:34;;;;;;;41.33;26.77;;;;;;;;;;513349;28;971;-74
2024/03/05 01:19:49;;;;;;;42.85;27.58;;;;;;;;;;513570;28;1240;-75
2024/03/05 01:20:10;;;;;;;45.63;27.55;;;;;;;;;;516579;28;1081;-75
2024/03/05 01:20:25;;;;;;;43.42;26.70;;;;;;;;;;517306;28;871;-74
2024/03/05 01:20:41;;;;;;;42.70;26.95;;;;;;;;;;517249;28;1212;-74
2024/03/05 01:20:57;;;;;;;45.97;28.15;;;;;;;;;;518927;28;1448;-75
2024/03/05 01:21:12;;;;;;;46.13;27.97;;;;;;;;;;520698;28;853;-74
2024/03/05 01:21:27;;;;;;;45.03;27.67;;;;;;;;;;519337;28;1267;-74
2024/03/05 01:21:42;;;;;;;44.42;27.52;;;;;;;;;;521375;28;1182;-75
2024/03/05 01:22:00;;;;;;;43.30;27.43;;;;;;;;;;519539;28;1635;-74
2024/03/05 01:22:16;;;;;;;43.90;27.60;;;;;;;;;;516746;28;1138;-74
2024/03/05 01:22:32;;;;;;;43.57;27.57;;;;;;;;;;519062;28;1165;-74
2024/03/05 01:22:47;;;;;;;43.42;27.60;;;;;;;;;;518683;28;867;-74
2024/03/05 01:23:03;;;;;;;41.25;26.20;;;;;;;;;;516935;28;1045;-74
2024/03/05 01:23:18;;;;;;;38.33;24.73;;;;;;;;;;514627;28;1188;-74
2024/03/05 01:23:34;;;;;;;39.10;25.17;;;;;;;;;;515527;28;1999;-75
2024/03/05 01:23:49;;;;;;;41.63;25.97;;;;;;;;;;517530;28;894;-74
2024/03/05 01:24:05;;;;;;;41.80;26.30;;;;;;;;;;516820;28;894;-75
2024/03/05 01:24:21;;;;;;;42.73;27.03;;;;;;;;;;517515;28;930;-74
2024/03/05 01:24:36;;;;;;;43.17;26.98;;;;;;;;;;520916;28;1278;-74
2024/03/05 01:24:52;;;;;;;42.20;26.40;;;;;;;;;;520961;28;1204;-74
2024/03/05 01:25:08;;;;;;;41.97;26.80;;;;;;;;;;519647;28;1007;-74
2024/03/05 01:25:23;;;;;;;42.92;27.27;;;;;;;;;;519178;28;1334;-74
2024/03/05 01:25:39;;;;;;;44.30;27.47;;;;;;;;;;519209;28;1262;-74
2024/03/05 01:25:54;;;;;;;43.85;27.25;;;;;;;;;;518397;28;1194;-74
2024/03/05 01:26:09;;;;;;;42.30;27.50;;;;;;;;;;517217;28;1215;-75
2024/03/05 01:26:24;;;;;;;43.30;27.57;;;;;;;;;;517069;28;929;-74
2024/03/05 01:26:43;;;;;;;44.83;27.40;;;;;;;;;;515182;28;1094;-75
2024/03/05 01:26:58;;;;;;;46.28;27.92;;;;;;;;;;515132;28;1421;-74
2024/03/05 01:27:14;;;;;;;45.97;28.15;;;;;;;;;;514825;28;1211;-75
2024/03/05 01:27:29;;;;;;;44.17;27.63;;;;;;;;;;515058;28;1397;-75
2024/03/05 01:27:45;;;;;;;45.47;27.33;;;;;;;;;;515272;28;978;-74
2024/03/05 01:28:00;;;;;;;45.97;27.48;;;;;;;;;;516322;28;1094;-75
2024/03/05 01:28:15;;;;;;;44.07;27.33;;;;;;;;;;516749;28;882;-74
2024/03/05 01:28:31;;;;;;;43.67;27.10;;;;;;;;;;515049;28;1388;-74
2024/03/05 01:28:46;;;;;;;44.03;27.23;;;;;;;;;;515580;28;1227;-75
2024/03/05 01:29:01;;;;;;;44.28;27.10;;;;;;;;;;515595;28;919;-74
2024/03/05 01:29:17;;;;;;;42.17;26.60;;;;;;;;;;515305;28;1201;-75
2024/03/05 01:29:33;;;;;;;43.25;26.95;;;;;;;;;;515150;28;1323;-74
2024/03/05 01:29:48;;;;;;;44.47;27.10;;;;;;;;;;513083;28;1222;-74
2024/03/05 01:30:10;;;;;;;40.72;25.60;;;;;;;;;;514743;28;1201;-74
2024/03/05 01:30:25;;;;;;;40.35;25.52;;;;;;;;;;516292;28;824;-74
2024/03/05 01:30:41;;;;;;;42.63;26.00;;;;;;;;;;517084;28;1275;-74
2024/03/05 01:30:58;;;;;;;41.40;25.73;;;;;;;;;;514295;28;1268;-74
2024/03/05 01:31:13;;;;;;;40.75;25.23;;;;;;;;;;513174;28;910;-75
2024/03/05 01:31:29;;;;;;;40.10;24.90;;;;;;;;;;514497;28;1284;-75
2024/03/05 01:31:47;;;;;;;38.40;25.23;;;;;;;;;;513139;28;1279;-75
2024/03/05 01:32:03;;;;;;;37.65;25.20;;;;;;;;;;516304;28;1088;-75
2024/03/05 01:32:19;;;;;;;39.63;25.08;;;;;;;;;;517156;28;878;-73
2024/03/05 01:32:35;;;;;;;41.28;25.13;;;;;;;;;;517091;28;843;-74
2024/03/05 01:32:56;;;;;;;41.03;25.15;;;;;;;;;;518328;28;1056;-74
2024/03/05 01:33:19;;;;;;;40.30;25.60;;;;;;;;;;519301;28;1453;-75
2024/03/05 01:33:37;;;;;;;40.88;25.75;;;;;;;;;;520418;28;993;-75
2024/03/05 01:33:52;;;;;;;44.90;27.38;;;;;;;;;;520484;28;1516;-74
2024/03/05 01:34:08;;;;;;;42.73;26.80;;;;;;;;;;520442;28;1701;-74
2024/03/05 01:34:23;;;;;;;39.63;25.65;;;;;;;;;;519008;28;1753;-75
2024/03/05 01:34:43;;;;;;;38.37;25.07;;;;;;;;;;519193;28;811;-75